Riverside, Ohio
Current Conditions -  °F | °C
As of 10:58 AM on Friday 28 Nov 2014 (Local Time) from KFFO Reporting Station
Broken Clouds Broken Clouds  
Wind Chill: 19°   Ceiling: 8000
Heat Index: 27°   Visibility: 10mi
Dew Point: 16°   Wind: 8mph
Humidity: 64%   Direction: 160°SSE
Pressure: 30.35"   Gusts: NA
Location:  39.7649°N, 84.0863°W
Report Text: KFFO 281558Z AUTO 16007KT 10SM BKN080 M03/M09 A3035 RMK AO2 SLP292 T10281088
Loading
Personal Weather Stations






























Interactive Weather Map New forecast layout! Learn more

10-Day Weather Forecast

Advertisements
Track Severe Weather on mobile